Oliver, Canada
Current Conditions -  °F | °C
As of 6:00 PM on Saturday 25 Oct 2014 (Local Time) from CYYF Reporting Station
Light Rain Light Rain  
Wind Chill: 45°   Ceiling: 6000
Heat Index: 48°   Visibility: 15mi
Dew Point: 45°   Wind: 8mph
Humidity: 87%   Direction: 340°NNW
Pressure: 29.42"   Gusts: NA
Location:  49.18°N, 119.55°W
Report Text: CYYF 260100Z 34007KT 15SM -RA BKN060 BKN120 BKN220 09/07 A2942 RMK SC5AC1CI1 PRESFR SLP968 DENSITY ALT 1200FT
Loading
Personal Weather Stations






























Interactive Weather Map
Tropical Storm Tracking
New forecast layout! Learn more

10-Day Weather Forecast

Advertisements
Track Severe Weather on mobile